Time;durP1;ratioP1;P1;durP2;ratioP2;P2;SDS_P1;SDS_P2;PMS_P1;PMS_P2;Temp;Humidity;BMP_temperature;BMP_pressure;BME280_temperature;BME280_humidity;BME280_pressure;Samples;Min_cycle;Max_cycle;Signal;HPM_P1;HPM_P2
2022/05/17 00:02:22;;;;;;;4.00;2.25;;;15.20;99.90;;;;;;5092133;28;20051;-74
2022/05/17 00:04:47;;;;;;;8.50;2.13;;;15.20;99.90;;;;;;5092145;28;20050;-74
2022/05/17 00:07:13;;;;;;;8.43;2.30;;;15.20;99.90;;;;;;5092023;28;20051;-74
2022/05/17 00:09:39;;;;;;;6.07;2.22;;;15.10;99.90;;;;;;5091979;28;20497;-73
2022/05/17 00:12:05;;;;;;;5.22;2.28;;;15.10;99.90;;;;;;5091985;28;20490;-74
2022/05/17 00:14:31;;;;;;;5.43;1.92;;;15.10;99.90;;;;;;5092052;28;20020;-74
2022/05/17 00:16:57;;;;;;;8.13;2.90;;;15.10;99.90;;;;;;5092083;28;20031;-74
2022/05/17 00:19:23;;;;;;;4.28;2.03;;;15.10;99.90;;;;;;5092044;28;20073;-74
2022/05/17 00:21:50;;;;;;;12.18;2.13;;;15.10;99.90;;;;;;5074048;28;20505;-73
2022/05/17 00:24:18;;;;;;;9.40;2.00;;;15.00;99.90;;;;;;5091993;28;20016;-74
2022/05/17 00:26:44;;;;;;;9.15;2.55;;;15.00;99.90;;;;;;5073511;28;20034;-73
2022/05/17 00:29:11;;;;;;;8.68;2.35;;;14.90;99.90;;;;;;5073692;28;20388;-74
2022/05/17 00:31:36;;;;;;;8.32;2.28;;;14.90;99.90;;;;;;5073652;28;20476;-74
2022/05/17 00:34:03;;;;;;;6.55;2.35;;;14.90;99.90;;;;;;5073683;28;20024;-73
2022/05/17 00:36:31;;;;;;;5.07;2.20;;;14.80;99.90;;;;;;5091945;28;20024;-74
2022/05/17 00:38:56;;;;;;;5.20;2.30;;;14.80;99.90;;;;;;5091861;28;20035;-74
2022/05/17 00:41:22;;;;;;;6.22;1.98;;;14.80;99.90;;;;;;5091735;28;20400;-73
2022/05/17 00:46:47;;;;;;;5.75;2.28;;;14.80;99.90;;;;;;5091841;28;20047;-73
2022/05/17 00:49:20;;;;;;;5.50;2.40;;;14.80;99.90;;;;;;5073760;28;20048;-74
2022/05/17 00:51:46;;;;;;;5.20;2.17;;;14.80;99.90;;;;;;5091799;28;20052;-75
2022/05/17 00:54:15;;;;;;;4.85;2.08;;;14.80;99.90;;;;;;5073767;28;20063;-74
2022/05/17 00:56:46;;;;;;;11.63;2.40;;;14.80;99.90;;;;;;5095470;28;20388;-74
2022/05/17 00:59:12;;;;;;;5.50;2.40;;;14.80;99.90;;;;;;5077183;28;20020;-74
2022/05/17 01:01:38;;;;;;;6.80;2.53;;;14.70;99.90;;;;;;5095400;28;20077;-74
2022/05/17 01:04:16;;;;;;;7.57;2.50;;;14.70;99.90;;;;;;5095353;28;20033;-74
2022/05/17 01:06:46;;;;;;;3.50;2.35;;;14.70;99.90;;;;;;5077033;28;20024;-74
2022/05/17 01:09:14;;;;;;;9.75;2.70;;;14.60;99.90;;;;;;5076888;28;20186;-74
2022/05/17 01:11:41;;;;;;;4.70;2.30;;;14.60;99.90;;;;;;5076914;28;20027;-74
2022/05/17 01:16:53;;;;;;;4.35;2.35;;;14.60;99.90;;;;;;5095179;28;20450;-74
2022/05/17 01:19:18;;;;;;;5.20;2.45;;;14.60;99.90;;;;;;5095029;28;20028;-74
2022/05/17 01:21:44;;;;;;;7.78;2.97;;;14.50;99.90;;;;;;5095021;28;20379;-74
2022/05/17 01:24:10;;;;;;;4.45;2.45;;;14.50;99.90;;;;;;5076802;28;20028;-74
2022/05/17 01:26:43;;;;;;;4.78;2.38;;;14.50;99.90;;;;;;5094910;28;20071;-74
2022/05/17 01:29:11;;;;;;;5.85;1.98;;;14.50;99.90;;;;;;5094902;28;20074;-74
2022/05/17 01:31:38;;;;;;;7.10;2.38;;;14.50;99.90;;;;;;5094853;28;20078;-74
2022/05/17 01:34:10;;;;;;;5.80;2.63;;;14.50;99.90;;;;;;5078974;28;20537;-74
2022/05/17 01:36:37;;;;;;;5.82;2.35;;;14.40;99.90;;;;;;5086821;28;20032;-72
2022/05/17 01:39:03;;;;;;;5.93;2.45;;;14.40;99.90;;;;;;5090447;28;20036;-72
2022/05/17 01:41:29;;;;;;;7.97;2.70;;;14.40;99.90;;;;;;5076461;28;20058;-72
2022/05/17 01:43:55;;;;;;;4.75;2.30;;;14.40;99.90;;;;;;5094629;28;20050;-72
2022/05/17 01:46:21;;;;;;;5.20;2.10;;;14.40;99.90;;;;;;5076352;28;20024;-72
2022/05/17 01:48:47;;;;;;;6.65;2.65;;;14.30;99.90;;;;;;5095795;28;20024;-71
2022/05/17 01:51:13;;;;;;;4.95;2.22;;;14.30;99.90;;;;;;5114786;28;20164;-72
2022/05/17 01:53:39;;;;;;;6.15;2.92;;;14.30;99.90;;;;;;5114824;28;20020;-72
2022/05/17 01:56:07;;;;;;;5.85;2.75;;;14.30;99.90;;;;;;5114700;28;20025;-72
2022/05/17 01:58:33;;;;;;;5.70;3.50;;;14.30;99.90;;;;;;5114762;28;20023;-72
2022/05/17 02:01:00;;;;;;;8.75;3.42;;;14.20;99.90;;;;;;5114659;28;20019;-72
2022/05/17 02:03:25;;;;;;;8.45;3.40;;;14.20;99.90;;;;;;5114515;28;20035;-71
2022/05/17 02:05:51;;;;;;;13.57;3.78;;;14.20;99.90;;;;;;5096057;28;20031;-72
2022/05/17 02:08:18;;;;;;;13.45;3.45;;;14.10;99.90;;;;;;5114349;28;20027;-72
2022/05/17 02:10:44;;;;;;;8.90;3.35;;;14.10;99.90;;;;;;5114320;28;20020;-72
2022/05/17 02:13:10;;;;;;;8.70;3.10;;;14.00;99.90;;;;;;5114418;28;20015;-72
2022/05/17 02:15:36;;;;;;;4.28;2.80;;;14.00;99.90;;;;;;5114410;28;20027;-72
2022/05/17 02:18:02;;;;;;;5.18;2.47;;;14.00;99.90;;;;;;5114311;28;20476;-72
2022/05/17 02:20:28;;;;;;;8.18;2.65;;;14.00;99.90;;;;;;5114297;28;20081;-72
2022/05/17 02:22:53;;;;;;;7.63;2.90;;;14.00;99.90;;;;;;5114159;28;20439;-72
2022/05/17 02:25:19;;;;;;;7.50;2.55;;;14.00;99.90;;;;;;5114061;28;20026;-71
2022/05/17 02:27:45;;;;;;;5.32;2.65;;;14.00;99.90;;;;;;5095886;28;20521;-72
2022/05/17 02:30:12;;;;;;;5.32;2.30;;;14.00;99.90;;;;;;5095583;28;20468;-72
2022/05/17 02:32:38;;;;;;;4.00;2.67;;;13.90;99.90;;;;;;5095700;28;20015;-72
2022/05/17 02:35:05;;;;;;;8.18;2.90;;;13.90;99.90;;;;;;5114040;28;20099;-72
2022/05/17 02:37:31;;;;;;;11.27;2.88;;;13.90;99.90;;;;;;5113888;28;20484;-71
2022/05/17 02:39:57;;;;;;;7.38;2.22;;;13.90;99.90;;;;;;5113883;28;20038;-72
2022/05/17 02:42:22;;;;;;;5.25;3.13;;;13.90;99.90;;;;;;5095486;28;20138;-72
2022/05/17 02:44:48;;;;;;;5.28;2.55;;;13.90;99.90;;;;;;5113886;28;20686;-72
2022/05/17 02:47:14;;;;;;;4.55;2.17;;;13.90;99.90;;;;;;5108437;28;20123;-72
2022/05/17 02:49:44;;;;;;;5.75;2.35;;;13.80;99.90;;;;;;5093211;28;20020;-72
2022/05/17 02:52:10;;;;;;;5.47;1.88;;;13.80;99.90;;;;;;5093264;28;20016;-72
2022/05/17 02:54:37;;;;;;;6.20;2.75;;;13.80;99.90;;;;;;5075000;28;20024;-72
2022/05/17 02:57:04;;;;;;;4.88;2.22;;;13.80;99.90;;;;;;5093115;28;20023;-72
2022/05/17 02:59:31;;;;;;;7.10;2.22;;;13.80;99.90;;;;;;5074798;28;20034;-73
2022/05/17 03:01:57;;;;;;;5.53;2.55;;;13.70;99.90;;;;;;5083239;28;20154;-73
2022/05/17 03:04:22;;;;;;;8.25;2.72;;;13.70;99.90;;;;;;5074932;28;20440;-73
2022/05/17 03:06:48;;;;;;;6.30;3.25;;;13.70;99.90;;;;;;5074848;28;20103;-74
2022/05/17 03:09:13;;;;;;;4.82;2.40;;;13.70;99.90;;;;;;5092738;28;20450;-73
2022/05/17 03:11:43;;;;;;;6.82;2.67;;;13.70;99.90;;;;;;5092929;28;20028;-74
2022/05/17 03:14:11;;;;;;;4.20;2.47;;;13.60;99.90;;;;;;5092936;28;20048;-74
2022/05/17 03:16:37;;;;;;;5.68;2.70;;;13.60;99.90;;;;;;5074602;28;20031;-73
2022/05/17 03:19:04;;;;;;;5.80;2.83;;;13.70;99.90;;;;;;5092346;28;20443;-73
2022/05/17 03:21:30;;;;;;;6.68;2.30;;;13.70;99.90;;;;;;5074420;28;20052;-73
2022/05/17 03:23:56;;;;;;;8.43;3.15;;;13.70;99.90;;;;;;5092643;28;20028;-72
2022/05/17 03:26:21;;;;;;;4.53;2.65;;;13.70;99.90;;;;;;5092604;28;20028;-73
2022/05/17 03:28:47;;;;;;;8.35;3.03;;;13.60;99.90;;;;;;5092635;28;20032;-72
2022/05/17 03:31:13;;;;;;;6.68;2.95;;;13.60;99.90;;;;;;5092406;28;20036;-72
2022/05/17 03:33:39;;;;;;;7.68;3.88;;;13.60;99.90;;;;;;5092613;28;20024;-72
2022/05/17 03:36:06;;;;;;;7.22;3.13;;;13.60;99.90;;;;;;5092473;28;20036;-73
2022/05/17 03:38:33;;;;;;;7.38;3.90;;;13.50;99.90;;;;;;5092472;28;20537;-73
2022/05/17 03:40:58;;;;;;;7.22;3.42;;;13.50;99.90;;;;;;5112243;28;20055;-73
2022/05/17 03:43:27;;;;;;;5.55;3.45;;;13.50;99.90;;;;;;5094018;28;20104;-74
2022/05/17 03:45:53;;;;;;;8.50;3.55;;;13.50;99.90;;;;;;5107852;28;20023;-74
2022/05/17 03:48:19;;;;;;;9.02;3.55;;;13.40;99.90;;;;;;5112591;28;20016;-74
2022/05/17 03:50:45;;;;;;;8.23;3.92;;;13.40;99.90;;;;;;5082979;28;20028;-75
2022/05/17 03:53:11;;;;;;;9.63;3.95;;;13.40;99.90;;;;;;5097012;28;20018;-72
2022/05/17 03:55:37;;;;;;;8.65;3.58;;;13.30;99.90;;;;;;5070620;28;20107;-72
2022/05/17 03:58:02;;;;;;;5.72;3.10;;;13.30;99.90;;;;;;5059827;28;20021;-72
2022/05/17 04:00:28;;;;;;;7.45;3.55;;;13.30;99.90;;;;;;5080845;28;20046;-72
2022/05/17 04:02:54;;;;;;;8.73;3.67;;;13.30;99.90;;;;;;5085386;28;20021;-73
2022/05/17 04:05:19;;;;;;;5.95;3.72;;;13.30;99.90;;;;;;5093940;28;20040;-73
2022/05/17 04:07:45;;;;;;;8.35;3.28;;;13.30;99.90;;;;;;5088286;28;20032;-73
2022/05/17 04:10:13;;;;;;;9.70;3.75;;;13.30;99.90;;;;;;5093174;28;20020;-73
2022/05/17 04:12:39;;;;;;;5.90;3.65;;;13.30;99.90;;;;;;5093288;28;20028;-73
2022/05/17 04:15:06;;;;;;;9.85;3.85;;;13.30;99.90;;;;;;5089849;28;20097;-73
2022/05/17 04:17:32;;;;;;;8.30;3.65;;;13.40;99.90;;;;;;5077669;28;20040;-73
2022/05/17 04:20:02;;;;;;;8.88;4.47;;;13.40;99.90;;;;;;5087264;28;20030;-73
2022/05/17 04:22:28;;;;;;;10.13;4.13;;;13.40;99.90;;;;;;5073237;28;20396;-73
2022/05/17 04:24:55;;;;;;;6.70;3.22;;;13.40;99.90;;;;;;5087612;28;20024;-73
2022/05/17 04:27:21;;;;;;;7.40;3.30;;;13.50;99.90;;;;;;5087772;28;20582;-74
2022/05/17 04:29:48;;;;;;;6.88;3.85;;;13.60;99.90;;;;;;5092843;28;20020;-73
2022/05/17 04:32:14;;;;;;;6.72;3.42;;;13.60;99.90;;;;;;5096816;28;20357;-72
2022/05/17 04:34:39;;;;;;;5.93;2.78;;;13.70;99.90;;;;;;5075002;28;20020;-75
2022/05/17 04:37:05;;;;;;;5.35;3.05;;;13.70;99.90;;;;;;5095850;28;20028;-72
2022/05/17 04:39:31;;;;;;;8.73;3.90;;;13.80;99.90;;;;;;5084613;28;20107;-72
2022/05/17 04:41:57;;;;;;;6.75;3.45;;;13.80;99.90;;;;;;5075511;28;20086;-72
2022/05/17 04:44:23;;;;;;;5.47;3.25;;;13.90;99.90;;;;;;5085573;28;20463;-73
2022/05/17 04:46:49;;;;;;;6.85;3.03;;;14.00;99.90;;;;;;5103754;28;20024;-73
2022/05/17 04:49:14;;;;;;;5.43;2.60;;;14.10;99.90;;;;;;5111575;28;20112;-73
2022/05/17 04:51:41;;;;;;;4.68;2.90;;;14.10;99.90;;;;;;5093929;28;20095;-72
2022/05/17 04:54:07;;;;;;;8.00;3.22;;;14.20;99.90;;;;;;5085474;28;20445;-73
2022/05/17 04:56:34;;;;;;;5.32;3.40;;;14.30;99.90;;;;;;5085262;28;20068;-72
2022/05/17 04:59:03;;;;;;;7.30;3.22;;;14.40;99.90;;;;;;5111427;28;20438;-74
2022/05/17 05:01:31;;;;;;;9.40;3.80;;;14.40;99.90;;;;;;5088971;28;20071;-73
2022/05/17 05:03:57;;;;;;;8.25;3.30;;;14.50;99.90;;;;;;5068865;28;20476;-73
2022/05/17 05:06:23;;;;;;;7.60;3.42;;;14.60;99.90;;;;;;5087024;28;20051;-74
2022/05/17 05:08:49;;;;;;;9.32;3.95;;;14.70;99.90;;;;;;5083287;28;20028;-72
2022/05/17 05:11:15;;;;;;;6.38;3.60;;;14.90;99.90;;;;;;5093684;28;20048;-71
2022/05/17 05:13:41;;;;;;;5.10;3.17;;;15.00;99.90;;;;;;5091977;28;20016;-71
2022/05/17 05:16:11;;;;;;;8.35;3.42;;;15.10;99.90;;;;;;5090262;28;20024;-70
2022/05/17 05:18:37;;;;;;;9.32;3.72;;;15.20;99.90;;;;;;5088749;28;20051;-69
2022/05/17 05:21:05;;;;;;;5.40;3.30;;;15.30;99.90;;;;;;5087094;28;20055;-69
2022/05/17 05:23:31;;;;;;;12.77;3.85;;;15.50;99.90;;;;;;5083562;28;20036;-70
2022/05/17 05:26:00;;;;;;;7.18;3.40;;;15.60;99.90;;;;;;5079352;28;20066;-69
2022/05/17 05:28:26;;;;;;;8.13;3.35;;;15.70;99.90;;;;;;5062036;28;20024;-69
2022/05/17 05:30:54;;;;;;;8.93;3.83;;;15.80;99.90;;;;;;5089668;22;20053;-73
2022/05/17 05:33:19;;;;;;;4.50;3.00;;;15.90;99.90;;;;;;5043363;28;20452;-73
2022/05/17 05:35:45;;;;;;;6.03;3.03;;;16.00;99.90;;;;;;5032842;28;20059;-73
2022/05/17 05:38:11;;;;;;;10.68;3.85;;;16.20;99.90;;;;;;5046716;28;20033;-73
2022/05/17 05:40:36;;;;;;;7.88;3.63;;;16.30;99.90;;;;;;5023326;28;20422;-74
2022/05/17 05:43:02;;;;;;;7.68;3.03;;;16.40;99.90;;;;;;5039868;28;20374;-73
2022/05/17 05:45:27;;;;;;;4.53;3.45;;;16.50;99.90;;;;;;5042180;28;20044;-73
2022/05/17 05:47:53;;;;;;;10.10;3.53;;;16.70;99.90;;;;;;5028171;28;20033;-73
2022/05/17 05:50:19;;;;;;;11.18;3.03;;;16.80;99.90;;;;;;5040990;28;20033;-73
2022/05/17 05:52:47;;;;;;;10.50;3.63;;;16.80;99.90;;;;;;5044552;28;20350;-73
2022/05/17 05:55:22;;;;;;;5.82;3.00;;;16.90;99.90;;;;;;5029419;28;20362;-73
2022/05/17 05:57:48;;;;;;;6.60;2.67;;;17.00;99.90;;;;;;5048626;28;20489;-73
2022/05/17 06:00:17;;;;;;;5.95;3.60;;;17.10;99.90;;;;;;5003192;28;20474;-73
2022/05/17 06:02:42;;;;;;;8.63;3.20;;;17.10;99.90;;;;;;5036828;28;20465;-72
2022/05/17 06:05:09;;;;;;;6.75;2.75;;;17.20;99.90;;;;;;5047701;28;20058;-72
2022/05/17 06:07:35;;;;;;;6.65;3.35;;;17.30;99.90;;;;;;5030732;28;20029;-73
2022/05/17 06:10:03;;;;;;;7.22;3.63;;;17.20;99.90;;;;;;5044122;28;20024;-72
2022/05/17 06:12:28;;;;;;;14.27;3.67;;;17.30;99.90;;;;;;5030672;28;20058;-73
2022/05/17 06:14:54;;;;;;;8.40;3.70;;;17.40;99.90;;;;;;5027638;28;20029;-73
2022/05/17 06:17:24;;;;;;;8.43;4.28;;;17.40;99.90;;;;;;5045988;28;20029;-74
2022/05/17 06:19:50;;;;;;;8.07;3.63;;;17.50;99.90;;;;;;5046369;28;20048;-74
2022/05/17 06:22:16;;;;;;;6.53;3.90;;;17.70;99.90;;;;;;5025235;28;20485;-75
2022/05/17 06:24:41;;;;;;;6.68;4.10;;;17.90;99.90;;;;;;5049271;28;20047;-72
2022/05/17 06:27:07;;;;;;;8.45;4.80;;;17.90;99.90;;;;;;5042850;28;20059;-72
2022/05/17 06:29:33;;;;;;;12.60;4.88;;;18.00;99.90;;;;;;5035449;28;20033;-72
2022/05/17 06:31:58;;;;;;;8.88;4.32;;;17.90;99.90;;;;;;5048450;28;20021;-71
2022/05/17 06:34:24;;;;;;;8.05;4.35;;;17.80;99.90;;;;;;5041047;28;20028;-73
2022/05/17 06:36:50;;;;;;;8.02;4.10;;;17.80;99.90;;;;;;5044075;28;20465;-73
2022/05/17 06:39:16;;;;;;;9.60;4.28;;;17.90;99.90;;;;;;5027772;28;20136;-72
2022/05/17 06:41:43;;;;;;;8.90;4.05;;;18.00;99.90;;;;;;5046808;28;20107;-73
2022/05/17 06:44:08;;;;;;;11.43;4.53;;;18.00;99.90;;;;;;5050903;28;20088;-73
2022/05/17 06:46:34;;;;;;;15.23;5.10;;;18.10;99.90;;;;;;5047267;28;20045;-73
2022/05/17 06:49:00;;;;;;;7.60;4.97;;;18.10;99.90;;;;;;5042860;28;20055;-74
2022/05/17 06:51:26;;;;;;;11.05;4.55;;;18.20;99.90;;;;;;5042128;28;20087;-73
2022/05/17 06:53:52;;;;;;;6.93;3.85;;;18.20;99.90;;;;;;5045579;28;20028;-74
2022/05/17 06:56:17;;;;;;;8.60;4.40;;;18.30;99.90;;;;;;5032461;28;20416;-73
2022/05/17 06:58:43;;;;;;;5.90;3.85;;;18.40;99.90;;;;;;5046526;28;20259;-73
2022/05/17 07:01:08;;;;;;;8.20;4.32;;;18.50;99.90;;;;;;5050098;28;20049;-73
2022/05/17 07:03:34;;;;;;;10.38;5.07;;;18.60;99.90;;;;;;5048967;28;20437;-73
2022/05/17 07:06:00;;;;;;;9.90;4.70;;;18.80;99.90;;;;;;5047701;28;20036;-73
2022/05/17 07:08:25;;;;;;;13.48;4.57;;;18.80;99.90;;;;;;5051469;28;21203;-72
2022/05/17 07:13:35;;;;;;;;;;;18.90;99.90;;;;;;5043674;28;20057;-71
2022/05/17 07:16:01;;;;;;;8.57;4.90;;;19.00;99.90;;;;;;5047154;28;19917;-71
2022/05/17 07:18:29;;;;;;;9.02;4.40;;;19.00;99.90;;;;;;5034647;28;20344;-72
2022/05/17 07:20:56;;;;;;;6.40;3.90;;;19.10;99.90;;;;;;5043097;28;20473;-72
2022/05/17 07:23:24;;;;;;;6.80;4.18;;;19.10;99.90;;;;;;5032469;28;20033;-72
2022/05/17 07:25:50;;;;;;;9.77;4.53;;;19.20;99.90;;;;;;5046838;28;20041;-73
2022/05/17 07:28:19;;;;;;;11.35;4.43;;;19.30;99.90;;;;;;5053766;28;20396;-73
2022/05/17 07:30:46;;;;;;;8.18;4.18;;;19.30;99.90;;;;;;5031308;28;20124;-74
2022/05/17 07:33:12;;;;;;;7.10;3.53;;;19.30;99.90;;;;;;5051674;28;20418;-73
2022/05/17 07:35:38;;;;;;;7.03;4.20;;;19.30;99.90;;;;;;5029934;28;20056;-75
2022/05/17 07:38:06;;;;;;;6.63;3.70;;;19.40;99.90;;;;;;5049308;28;20033;-74
2022/05/17 07:40:32;;;;;;;7.47;4.95;;;19.40;99.90;;;;;;5045266;28;20025;-72
2022/05/17 07:42:58;;;;;;;7.15;4.00;;;19.50;99.90;;;;;;5044538;28;20025;-75
2022/05/17 07:45:24;;;;;;;6.30;3.83;;;19.60;99.90;;;;;;5052567;28;20028;-75
2022/05/17 07:47:49;;;;;;;7.90;3.97;;;19.60;99.90;;;;;;5033033;28;20035;-75
2022/05/17 07:50:15;;;;;;;8.77;4.53;;;19.70;99.90;;;;;;5050374;28;20021;-76
2022/05/17 07:52:42;;;;;;;9.65;4.55;;;19.60;99.90;;;;;;5046580;28;20033;-76
2022/05/17 07:55:10;;;;;;;8.02;4.28;;;19.60;99.90;;;;;;5054426;28;20102;-75
2022/05/17 07:57:37;;;;;;;8.27;4.57;;;19.60;99.90;;;;;;5048388;28;20025;-75
2022/05/17 08:00:05;;;;;;;6.43;4.60;;;19.70;99.90;;;;;;5031179;28;20123;-75
2022/05/17 08:02:34;;;;;;;7.80;4.03;;;19.70;99.90;;;;;;5030602;28;20044;-76
2022/05/17 08:05:01;;;;;;;7.60;4.43;;;19.90;99.90;;;;;;5049628;28;20055;-75
2022/05/17 08:07:27;;;;;;;10.13;4.30;;;20.10;99.90;;;;;;5050550;28;20113;-76
2022/05/17 08:09:52;;;;;;;6.70;4.38;;;20.00;99.90;;;;;;5033269;28;20041;-75
2022/05/17 08:12:18;;;;;;;10.82;4.57;;;20.00;99.90;;;;;;5030242;28;20025;-76
2022/05/17 08:14:45;;;;;;;11.23;4.30;;;20.10;99.90;;;;;;5052945;28;20029;-75
2022/05/17 08:17:10;;;;;;;8.75;4.13;;;20.10;99.90;;;;;;5053083;28;20033;-75
2022/05/17 08:19:38;;;;;;;10.43;5.25;;;20.30;99.90;;;;;;5031611;28;20029;-75
2022/05/17 08:22:11;;;;;;;8.20;4.75;;;20.30;99.90;;;;;;5049446;28;20033;-76
2022/05/17 08:27:36;;;;;;;8.50;4.50;;;20.40;99.90;;;;;;5013698;28;20112;-76
2022/05/17 08:30:09;;;;;;;6.45;4.60;;;20.50;99.90;;;;;;5029997;28;20383;-76
2022/05/17 08:35:19;;;;;;;7.55;4.85;;;20.80;99.90;;;;;;5051171;28;20098;-76
2022/05/17 08:37:45;;;;;;;9.75;4.60;;;20.90;99.90;;;;;;5051572;28;20035;-76
2022/05/17 08:40:22;;;;;;;7.70;4.78;;;21.10;99.90;;;;;;5050308;28;20025;-75
2022/05/17 08:42:59;;;;;;;8.38;4.45;;;21.10;99.90;;;;;;5049859;28;20032;-76
2022/05/17 08:45:34;;;;;;;8.07;4.60;;;21.20;99.90;;;;;;5049900;28;20037;-76
2022/05/17 08:48:02;;;;;;;6.40;4.05;;;21.30;99.90;;;;;;5050639;28;20059;-76
2022/05/17 08:50:34;;;;;;;6.45;4.75;;;21.30;99.90;;;;;;5049488;28;20505;-75
2022/05/17 08:53:00;;;;;;;5.93;4.20;;;21.30;99.90;;;;;;5032740;28;20024;-75
2022/05/17 08:55:40;;;;;;;8.25;3.40;;;21.20;99.90;;;;;;5032026;28;20428;-75
2022/05/17 08:58:25;;;;;;;5.90;3.80;;;21.40;99.90;;;;;;5033818;28;20469;-76
2022/05/17 09:01:02;;;;;;;5.68;4.10;;;21.60;99.90;;;;;;5050055;28;20240;-76
2022/05/17 09:03:50;;;;;;;8.15;3.90;;;21.60;99.60;;;;;;5050291;28;20469;-75
2022/05/17 09:06:24;;;;;;;6.00;3.72;;;21.70;99.30;;;;;;5048829;28;20029;-76
2022/05/17 09:08:52;;;;;;;8.20;3.80;;;21.70;98.80;;;;;;5048031;28;20053;-76
2022/05/17 09:11:30;;;;;;;4.80;3.65;;;22.00;98.50;;;;;;5032042;28;20032;-75
2022/05/17 09:14:09;;;;;;;5.70;4.00;;;22.00;98.20;;;;;;5050704;28;20088;-75
2022/05/17 09:17:07;;;;;;;8.57;4.05;;;21.90;98.00;;;;;;5050056;28;20435;-76
2022/05/17 09:19:33;;;;;;;6.10;3.40;;;22.00;97.60;;;;;;5038746;28;20102;-76
2022/05/17 09:22:00;;;;;;;7.82;4.20;;;22.00;97.30;;;;;;5052808;28;20025;-76
2022/05/17 09:24:30;;;;;;;10.65;4.15;;;22.10;97.40;;;;;;5049240;28;20456;-76
2022/05/17 09:27:21;;;;;;;6.78;3.60;;;22.30;96.50;;;;;;5052066;28;20024;-76
2022/05/17 09:29:49;;;;;;;8.93;3.38;;;22.40;96.00;;;;;;5057715;28;20040;-76
2022/05/17 09:32:38;;;;;;;9.68;3.78;;;22.50;95.20;;;;;;5034420;28;20089;-76
2022/05/17 09:35:17;;;;;;;6.63;3.20;;;22.60;94.30;;;;;;5036630;28;20445;-76
2022/05/17 09:37:49;;;;;;;5.95;3.10;;;22.40;93.80;;;;;;5039212;28;20479;-76
2022/05/17 09:40:22;;;;;;;5.25;3.10;;;22.50;93.90;;;;;;5058361;28;20045;-75
2022/05/17 09:43:09;;;;;;;3.75;2.95;;;22.50;93.70;;;;;;5036803;28;20043;-76
2022/05/17 09:45:45;;;;;;;5.18;3.13;;;22.50;93.70;;;;;;5053760;28;20040;-76
2022/05/17 09:48:12;;;;;;;6.63;3.40;;;22.50;93.60;;;;;;5057846;28;20021;-76
2022/05/17 09:53:40;;;;;;;5.78;3.40;;;22.60;93.00;;;;;;5049286;28;20064;-76
2022/05/17 09:56:07;;;;;;;11.32;3.83;;;22.70;93.10;;;;;;5034338;28;20370;-77
2022/05/17 09:58:39;;;;;;;7.55;3.45;;;22.90;92.70;;;;;;5052290;28;20048;-76
2022/05/17 10:01:14;;;;;;;5.88;2.67;;;22.90;92.10;;;;;;5053788;28;20028;-76
2022/05/17 10:03:42;;;;;;;3.92;2.67;;;22.80;91.50;;;;;;5033023;28;20470;-74
2022/05/17 10:06:13;;;;;;;6.38;2.90;;;22.80;91.10;;;;;;5045452;28;20106;-70
2022/05/17 10:08:58;;;;;;;6.15;3.00;;;22.90;91.50;;;;;;5047973;28;20409;-68
2022/05/17 10:11:25;;;;;;;6.45;2.95;;;22.90;92.10;;;;;;5043491;28;20326;-68
2022/05/17 10:13:57;;;;;;;6.75;3.67;;;22.90;91.60;;;;;;5046011;28;20031;-70
2022/05/17 10:16:46;;;;;;;6.30;2.83;;;22.90;91.80;;;;;;5049472;28;20035;-68
2022/05/17 10:19:27;;;;;;;6.90;3.17;;;23.00;91.90;;;;;;5046225;28;20148;-69
2022/05/17 10:22:01;;;;;;;5.30;3.22;;;23.10;91.90;;;;;;5033728;28;20025;-67
2022/05/17 10:24:47;;;;;;;4.90;2.78;;;23.20;91.20;;;;;;5045586;28;20071;-68
2022/05/17 10:27:32;;;;;;;4.57;2.85;;;23.30;90.10;;;;;;5032129;28;20509;-67
2022/05/17 10:30:05;;;;;;;7.03;2.85;;;23.20;88.10;;;;;;5044597;28;20113;-71
2022/05/17 10:32:33;;;;;;;;;;;23.20;88.70;;;;;;5047376;28;20025;-70
2022/05/17 10:35:11;;;;;;;4.60;3.28;;;23.20;88.40;;;;;;5053250;28;19917;-69
2022/05/17 10:38:22;;;;;;;6.43;3.08;;;23.30;89.90;;;;;;5051028;28;20381;-69
2022/05/17 10:40:53;;;;;;;6.18;2.95;;;23.30;87.80;;;;;;4957153;28;20122;-69
2022/05/17 10:43:37;;;;;;;4.20;2.80;;;23.20;87.60;;;;;;5038580;28;20405;-68
2022/05/17 10:46:10;;;;;;;6.65;3.30;;;23.20;86.70;;;;;;5045072;28;20021;-69
2022/05/17 10:48:49;;;;;;;6.27;2.83;;;23.20;85.50;;;;;;5060559;28;20470;-67
2022/05/17 10:51:19;;;;;;;3.83;2.60;;;23.20;82.70;;;;;;5046357;28;20026;-67
2022/05/17 10:54:00;;;;;;;5.05;2.20;;;23.20;83.10;;;;;;5036093;28;20086;-66
2022/05/17 10:56:56;;;;;;;3.28;2.20;;;23.20;84.40;;;;;;5042100;28;20025;-66
2022/05/17 10:59:36;;;;;;;4.82;2.28;;;23.20;81.90;;;;;;5005511;28;20139;-67
2022/05/17 11:02:39;;;;;;;6.80;1.90;;;23.20;79.00;;;;;;5048862;28;20066;-68
2022/05/17 11:05:32;;;;;;;4.25;1.75;;;23.20;80.40;;;;;;5047518;28;20041;-68
2022/05/17 11:08:01;;;;;;;3.63;1.80;;;23.20;80.20;;;;;;5027353;28;20031;-69
2022/05/17 11:11:06;;;;;;;7.10;2.10;;;23.20;79.40;;;;;;5046007;28;20039;-68
2022/05/17 11:13:49;;;;;;;2.67;1.70;;;23.30;79.90;;;;;;5044357;28;20541;-68
2022/05/17 11:16:22;;;;;;;3.47;1.93;;;23.40;78.20;;;;;;5043922;28;20037;-68
2022/05/17 11:18:51;;;;;;;4.00;2.15;;;23.30;76.70;;;;;;5046716;28;20109;-68
2022/05/17 11:21:29;;;;;;;3.47;1.75;;;23.40;77.00;;;;;;5029995;28;20473;-67
2022/05/17 11:24:07;;;;;;;4.72;2.17;;;23.40;75.90;;;;;;5050472;28;20021;-67
2022/05/17 11:26:52;;;;;;;3.38;1.92;;;23.30;74.80;;;;;;5047558;28;20032;-67
2022/05/17 11:29:47;;;;;;;4.15;2.17;;;23.30;74.20;;;;;;5043081;28;20507;-67
2022/05/17 11:32:16;;;;;;;4.35;2.03;;;23.40;74.30;;;;;;5043682;28;20032;-69
2022/05/17 11:34:43;;;;;;;4.05;2.03;;;23.40;73.60;;;;;;5046283;28;20090;-69
2022/05/17 11:37:32;;;;;;;5.13;1.67;;;23.30;73.50;;;;;;5025768;28;20074;-70
2022/05/17 11:39:59;;;;;;;5.30;2.53;;;23.30;74.90;;;;;;5044194;28;20353;-68
2022/05/17 11:42:28;;;;;;;4.03;1.70;;;23.20;76.00;;;;;;5027596;28;20062;-68
2022/05/17 11:44:55;;;;;;;3.88;1.90;;;23.30;76.40;;;;;;5045541;28;20029;-69
2022/05/17 11:47:32;;;;;;;3.25;1.98;;;23.20;76.80;;;;;;5049365;28;20031;-69
2022/05/17 11:50:15;;;;;;;3.95;2.00;;;23.20;75.40;;;;;;5046819;28;20103;-67
2022/05/17 11:52:43;;;;;;;3.88;2.20;;;23.30;76.20;;;;;;5042687;28;20029;-66
2022/05/17 11:55:12;;;;;;;6.38;2.35;;;23.20;75.90;;;;;;5025777;28;20390;-66
2022/05/17 11:57:38;;;;;;;4.30;1.60;;;23.20;77.70;;;;;;5030709;28;20040;-69
2022/05/17 12:00:27;;;;;;;3.55;2.30;;;23.30;77.90;;;;;;5025660;28;20078;-66
2022/05/17 12:02:54;;;;;;;2.50;1.73;;;23.40;77.20;;;;;;5043531;28;20029;-66
2022/05/17 12:05:38;;;;;;;3.60;2.10;;;23.40;76.60;;;;;;5046568;28;20036;-67
2022/05/17 12:08:22;;;;;;;;;;;23.40;77.50;;;;;;5023560;28;20044;-67
2022/05/17 12:10:56;;;;;;;5.07;2.60;;;23.40;76.60;;;;;;5046591;28;19908;-66
2022/05/17 12:13:22;;;;;;;2.88;2.03;;;23.40;77.20;;;;;;5041921;28;20025;-65
2022/05/17 12:15:52;;;;;;;5.95;2.03;;;23.50;75.80;;;;;;5046630;28;20428;-65
2022/05/17 12:18:37;;;;;;;3.33;1.73;;;23.50;75.80;;;;;;5047839;28;20129;-65
2022/05/17 12:21:25;;;;;;;3.13;2.05;;;23.60;75.70;;;;;;5041363;28;20111;-65
2022/05/17 12:24:23;;;;;;;6.03;2.83;;;23.60;75.00;;;;;;5040870;28;20107;-64
2022/05/17 12:27:17;;;;;;;3.97;1.90;;;23.70;73.20;;;;;;5039792;28;20132;-67
2022/05/17 12:32:36;;;;;;;4.88;2.38;;;23.80;68.90;;;;;;5044955;28;20056;-67
2022/05/17 12:35:05;;;;;;;5.93;2.55;;;23.70;71.20;;;;;;5041947;28;20090;-66
2022/05/17 12:37:31;;;;;;;5.85;3.15;;;23.70;71.60;;;;;;5048456;28;20109;-69
2022/05/17 12:45:34;;;;;;;4.72;2.65;;;23.80;69.70;;;;;;5044848;28;20254;-69
2022/05/17 12:48:10;;;;;;;2.47;1.70;;;23.80;69.90;;;;;;5024805;28;20116;-70
2022/05/17 12:50:48;;;;;;;4.55;2.00;;;23.80;69.50;;;;;;5020501;28;20457;-69
2022/05/17 12:53:36;;;;;;;2.97;1.75;;;23.80;69.50;;;;;;5047172;28;20047;-69
2022/05/17 12:56:12;;;;;;;3.15;1.73;;;23.70;69.30;;;;;;5048292;28;20086;-68
2022/05/17 12:58:53;;;;;;;1.75;1.20;;;23.80;68.10;;;;;;5032273;28;20029;-68
2022/05/17 13:01:28;;;;;;;3.05;1.55;;;23.80;65.70;;;;;;5054701;28;20021;-69
2022/05/17 13:03:55;;;;;;;3.67;1.50;;;23.80;66.80;;;;;;5043049;28;20063;-67
2022/05/17 13:06:21;;;;;;;3.25;1.98;;;23.90;66.50;;;;;;5045251;28;20060;-69
2022/05/17 13:08:47;;;;;;;3.80;1.63;;;24.10;67.10;;;;;;5044939;28;20500;-69
2022/05/17 13:11:25;;;;;;;3.38;1.20;;;24.30;64.00;;;;;;5050790;28;20414;-70
2022/05/17 13:14:00;;;;;;;2.53;1.23;;;24.40;63.40;;;;;;5057122;28;20027;-67
2022/05/17 13:16:33;;;;;;;1.85;1.17;;;24.30;62.00;;;;;;5049859;28;20043;-68
2022/05/17 13:19:03;;;;;;;3.40;1.48;;;24.40;63.30;;;;;;5049850;28;20021;-67
2022/05/17 13:21:41;;;;;;;3.22;1.40;;;24.50;63.50;;;;;;5061030;28;20113;-68
2022/05/17 13:24:34;;;;;;;3.58;1.40;;;24.60;66.10;;;;;;5049275;28;20055;-68
2022/05/17 13:27:04;;;;;;;3.97;1.98;;;24.70;65.90;;;;;;5050763;28;20033;-69
2022/05/17 13:29:35;;;;;;;6.05;1.95;;;24.70;68.80;;;;;;5033913;28;20071;-68